createdAt,value
2022-09-29T00:01:59.020Z,6.61
2022-09-29T00:04:25.483Z,6.59
2022-09-29T00:06:51.897Z,6.55
2022-09-29T00:09:18.393Z,6.50
2022-09-29T00:11:44.834Z,6.46
2022-09-29T00:14:11.277Z,6.44
2022-09-29T00:16:37.766Z,6.42
2022-09-29T00:19:05.072Z,6.40
2022-09-29T00:21:31.444Z,6.37
2022-09-29T00:24:00.874Z,6.35
2022-09-29T00:26:27.291Z,6.34
2022-09-29T00:28:58.560Z,6.31
2022-09-29T00:31:26.997Z,6.26
2022-09-29T00:33:53.892Z,6.24
2022-09-29T00:36:22.805Z,6.23
2022-09-29T00:38:52.653Z,6.22
2022-09-29T00:41:25.387Z,6.20
2022-09-29T00:43:51.747Z,6.18
2022-09-29T00:46:44.140Z,6.16
2022-09-29T00:49:17.115Z,6.13
2022-09-29T00:51:53.637Z,6.11
2022-09-29T00:54:21.130Z,6.09
2022-09-29T00:56:50.050Z,6.07
2022-09-29T00:59:23.809Z,6.06
2022-09-29T01:01:50.417Z,6.04
2022-09-29T01:04:19.731Z,6.03
2022-09-29T01:06:51.594Z,6.02
2022-09-29T01:09:21.211Z,6.01
2022-09-29T01:11:47.799Z,6.01
2022-09-29T01:14:16.121Z,5.99
2022-09-29T01:16:42.927Z,5.97
2022-09-29T01:20:01.963Z,5.94
2022-09-29T01:22:46.857Z,5.92
2022-09-29T01:25:35.585Z,5.90
2022-09-29T01:28:35.874Z,5.88
2022-09-29T01:31:08.343Z,5.86
2022-09-29T01:34:10.056Z,5.86
2022-09-29T01:37:14.157Z,5.83
2022-09-29T01:39:53.710Z,5.80
2022-09-29T01:42:29.360Z,5.76
2022-09-29T01:45:26.059Z,5.74
2022-09-29T01:47:58.860Z,5.72
2022-09-29T01:50:51.196Z,5.73
2022-09-29T01:53:22.888Z,5.70
2022-09-29T01:55:53.273Z,5.68
2022-09-29T01:58:30.462Z,5.67
2022-09-29T02:01:02.188Z,5.67
2022-09-29T02:03:37.937Z,5.66
2022-09-29T02:06:20.548Z,5.63
2022-09-29T02:08:53.724Z,5.60
2022-09-29T02:11:20.542Z,5.59
2022-09-29T02:14:02.036Z,5.56
2022-09-29T02:16:37.330Z,5.53
2022-09-29T02:19:19.738Z,5.51
2022-09-29T02:21:46.516Z,5.48
2022-09-29T02:24:13.082Z,5.43
2022-09-29T02:26:41.513Z,5.40
2022-09-29T02:29:08.973Z,5.36
2022-09-29T02:31:38.450Z,5.32
2022-09-29T02:34:08.965Z,5.30
2022-09-29T02:36:50.623Z,5.28
2022-09-29T02:39:56.390Z,5.27
2022-09-29T02:42:40.646Z,5.23
2022-09-29T02:45:23.678Z,5.20
2022-09-29T02:48:13.431Z,5.18
2022-09-29T02:50:52.085Z,5.15
2022-09-29T02:53:30.463Z,5.13
2022-09-29T02:56:10.697Z,5.10
2022-09-29T02:58:51.526Z,5.08
2022-09-29T03:01:18.038Z,5.08
2022-09-29T03:03:44.564Z,5.07
2022-09-29T03:06:13.380Z,5.07
2022-09-29T03:08:39.864Z,5.05
2022-09-29T03:11:06.316Z,5.03
2022-09-29T03:13:32.702Z,5.02
2022-09-29T03:15:59.271Z,4.98
2022-09-29T03:18:25.914Z,4.98
2022-09-29T03:20:55.180Z,5.00
2022-09-29T03:23:22.002Z,4.97
2022-09-29T03:25:48.557Z,4.94
2022-09-29T03:28:16.558Z,4.92
2022-09-29T03:30:43.517Z,4.89
2022-09-29T03:33:09.959Z,4.87
2022-09-29T03:35:36.394Z,4.86
2022-09-29T03:38:02.907Z,4.83
2022-09-29T03:40:29.685Z,4.81
2022-09-29T03:42:56.145Z,4.78
2022-09-29T03:45:22.655Z,4.77
2022-09-29T03:47:49.212Z,4.75
2022-09-29T03:50:15.826Z,4.73
2022-09-29T03:52:42.483Z,4.72
2022-09-29T03:55:09.410Z,4.69
2022-09-29T03:57:35.947Z,4.69
2022-09-29T04:00:02.426Z,4.69
2022-09-29T04:02:28.879Z,4.68
2022-09-29T04:04:55.412Z,4.68
2022-09-29T04:07:21.821Z,4.65
2022-09-29T04:09:48.377Z,4.64
2022-09-29T04:12:14.797Z,4.61
2022-09-29T04:14:41.206Z,4.59
2022-09-29T04:17:07.606Z,4.57
2022-09-29T04:19:34.228Z,4.56
2022-09-29T04:22:00.634Z,4.55
2022-09-29T04:24:27.221Z,4.54
2022-09-29T04:26:53.699Z,4.53
2022-09-29T04:29:20.208Z,4.52
2022-09-29T04:31:46.743Z,4.51
2022-09-29T04:34:13.187Z,4.49
2022-09-29T04:36:39.760Z,4.49
2022-09-29T04:39:06.815Z,4.48
2022-09-29T04:41:36.008Z,4.47
2022-09-29T04:44:02.689Z,4.47
2022-09-29T04:46:29.559Z,4.46
2022-09-29T04:48:56.020Z,4.44
2022-09-29T04:51:22.505Z,4.43
2022-09-29T04:53:48.977Z,4.45
2022-09-29T04:56:15.368Z,4.43
2022-09-29T04:58:41.905Z,4.41
2022-09-29T05:01:12.771Z,4.38
2022-09-29T05:03:39.838Z,4.37
2022-09-29T05:06:06.966Z,4.36
2022-09-29T05:08:33.436Z,4.34
2022-09-29T05:11:04.899Z,4.30
2022-09-29T05:13:31.383Z,4.27
2022-09-29T05:15:58.035Z,4.27
2022-09-29T05:18:25.500Z,4.24
2022-09-29T05:21:15.823Z,4.22
2022-09-29T05:23:38.378Z,4.20
2022-09-29T05:26:07.020Z,4.20
2022-09-29T05:28:33.469Z,4.21
2022-09-29T05:31:05.004Z,4.21
2022-09-29T05:33:31.448Z,4.20
2022-09-29T05:35:58.204Z,4.20
2022-09-29T05:38:25.549Z,4.19
2022-09-29T05:40:52.893Z,4.20
2022-09-29T05:43:20.155Z,4.18
2022-09-29T05:45:46.715Z,4.19
2022-09-29T05:48:13.194Z,4.20
2022-09-29T05:50:42.148Z,4.20
2022-09-29T05:53:09.007Z,4.20
2022-09-29T05:55:39.024Z,4.23
2022-09-29T05:58:06.454Z,4.26
2022-09-29T06:00:33.291Z,4.28
2022-09-29T06:03:00.271Z,4.30
2022-09-29T06:05:27.546Z,4.34
2022-09-29T06:07:54.402Z,4.36
2022-09-29T06:10:20.961Z,4.38
2022-09-29T06:12:47.416Z,4.42
2022-09-29T06:15:14.341Z,4.44
2022-09-29T06:17:40.744Z,4.45
2022-09-29T06:20:07.667Z,4.48
2022-09-29T06:22:34.101Z,4.52
2022-09-29T06:25:00.519Z,4.57
2022-09-29T06:27:27.041Z,4.60
2022-09-29T06:29:53.485Z,4.63
2022-09-29T06:32:20.045Z,4.67
2022-09-29T06:35:05.207Z,4.71
2022-09-29T06:37:34.748Z,4.73
2022-09-29T06:40:10.724Z,4.79
2022-09-29T06:42:38.548Z,4.82
2022-09-29T06:45:05.850Z,4.89
2022-09-29T06:47:32.301Z,4.94
2022-09-29T06:50:08.944Z,4.99
2022-09-29T06:53:01.126Z,5.04
2022-09-29T06:55:28.977Z,5.11
2022-09-29T06:57:57.887Z,5.15
2022-09-29T07:00:26.469Z,5.20
2022-09-29T07:02:52.953Z,5.24
2022-09-29T07:05:19.958Z,5.27
2022-09-29T07:07:52.004Z,5.32
2022-09-29T07:10:19.756Z,5.37
2022-09-29T07:12:46.987Z,5.41
2022-09-29T07:15:14.096Z,5.45
2022-09-29T07:17:40.533Z,5.48
2022-09-29T07:20:07.586Z,5.54
2022-09-29T07:22:34.106Z,5.60
2022-09-29T07:25:00.542Z,5.66
2022-09-29T07:27:26.941Z,5.73
2022-09-29T07:30:03.105Z,5.77
2022-09-29T07:32:32.593Z,5.79
2022-09-29T07:34:59.962Z,5.80
2022-09-29T07:37:30.463Z,5.85
2022-09-29T07:39:57.187Z,5.89
2022-09-29T07:42:23.638Z,5.94
2022-09-29T07:44:52.377Z,5.98
2022-09-29T07:47:19.201Z,6.00
2022-09-29T07:49:45.600Z,6.00
2022-09-29T07:52:13.689Z,6.01
2022-09-29T07:54:40.084Z,6.08
2022-09-29T07:57:06.539Z,6.16
2022-09-29T07:59:33.024Z,6.24
2022-09-29T08:01:59.807Z,6.27
2022-09-29T08:04:26.282Z,6.32
2022-09-29T08:06:52.730Z,6.38
2022-09-29T08:09:19.528Z,6.44
2022-09-29T08:11:46.614Z,6.49
2022-09-29T08:14:13.473Z,6.54
2022-09-29T08:16:40.268Z,6.63
2022-09-29T08:19:07.781Z,6.69
2022-09-29T08:21:38.230Z,6.75
2022-09-29T08:24:05.550Z,6.82
2022-09-29T08:26:42.642Z,6.93
2022-09-29T08:29:15.592Z,6.96
2022-09-29T08:31:43.836Z,7.01
2022-09-29T08:34:10.486Z,7.03
2022-09-29T08:36:36.883Z,7.17
2022-09-29T08:39:04.267Z,7.26
2022-09-29T08:42:04.728Z,7.39
2022-09-29T08:44:39.416Z,7.54
2022-09-29T08:47:17.168Z,7.63
2022-09-29T08:49:48.840Z,7.70
2022-09-29T08:52:20.475Z,7.72
2022-09-29T08:54:51.227Z,7.71
2022-09-29T08:57:19.876Z,7.69
2022-09-29T08:59:55.834Z,7.78
2022-09-29T09:02:59.615Z,7.92
2022-09-29T09:06:13.704Z,7.99
2022-09-29T09:09:07.342Z,8.17
2022-09-29T09:12:06.462Z,8.24
2022-09-29T09:14:55.445Z,8.30
2022-09-29T09:17:50.742Z,8.35
2022-09-29T09:21:04.643Z,8.42
2022-09-29T09:23:56.952Z,8.47
2022-09-29T09:26:37.911Z,8.53
2022-09-29T09:29:18.616Z,8.60
2022-09-29T09:31:54.448Z,8.74
2022-09-29T09:34:40.855Z,8.77
2022-09-29T09:37:34.426Z,8.89
2022-09-29T09:40:12.701Z,8.98
2022-09-29T09:42:44.752Z,9.04
2022-09-29T09:45:23.908Z,9.07
2022-09-29T09:47:57.363Z,9.10
2022-09-29T09:50:28.105Z,9.11
2022-09-29T09:53:15.968Z,9.23
2022-09-29T09:55:43.287Z,9.28
2022-09-29T09:58:18.878Z,9.37
2022-09-29T10:00:51.162Z,9.51
2022-09-29T10:03:18.000Z,9.56
2022-09-29T10:05:47.414Z,9.59
2022-09-29T10:08:38.322Z,9.76
2022-09-29T10:11:19.913Z,9.85
2022-09-29T10:13:47.222Z,10.07
2022-09-29T10:16:23.957Z,10.30
2022-09-29T10:18:53.783Z,10.42
2022-09-29T10:21:40.561Z,10.48
2022-09-29T10:24:23.656Z,10.56
2022-09-29T10:26:53.137Z,10.59
2022-09-29T10:29:29.538Z,10.59
2022-09-29T10:32:06.203Z,10.68
2022-09-29T10:34:35.885Z,10.77
2022-09-29T10:37:05.627Z,10.85
2022-09-29T10:39:41.188Z,10.94
2022-09-29T10:42:16.796Z,11.03
2022-09-29T10:44:49.524Z,11.16
2022-09-29T10:47:15.943Z,11.25
2022-09-29T10:49:42.472Z,11.31
2022-09-29T10:52:21.160Z,11.41
2022-09-29T10:55:03.915Z,11.53
2022-09-29T10:57:34.054Z,11.64
2022-09-29T11:00:01.183Z,11.74
2022-09-29T11:02:40.272Z,11.86
2022-09-29T11:05:20.004Z,11.97
2022-09-29T11:07:50.272Z,12.07
2022-09-29T11:10:28.979Z,12.13
2022-09-29T11:12:58.958Z,12.22
2022-09-29T11:15:39.015Z,12.35
2022-09-29T11:18:23.073Z,12.48
2022-09-29T11:21:02.508Z,12.57
2022-09-29T11:23:57.457Z,12.62
2022-09-29T11:26:24.446Z,12.66
2022-09-29T11:29:08.538Z,12.72
2022-09-29T11:31:56.921Z,12.79
2022-09-29T11:34:33.083Z,12.87
2022-09-29T11:37:11.392Z,12.92
2022-09-29T11:39:46.096Z,13.01
2022-09-29T11:42:37.310Z,13.04
2022-09-29T11:45:08.263Z,13.12
2022-09-29T11:47:56.339Z,13.22
2022-09-29T11:50:41.883Z,13.37
2022-09-29T11:53:28.351Z,13.53
2022-09-29T11:56:03.776Z,13.69
2022-09-29T11:58:52.830Z,13.78
2022-09-29T12:01:26.326Z,13.88
2022-09-29T12:03:56.969Z,13.99
2022-09-29T12:06:47.625Z,14.04
2022-09-29T12:09:57.599Z,14.08
2022-09-29T12:12:45.381Z,14.13
2022-09-29T12:15:45.025Z,14.21
2022-09-29T12:18:16.696Z,14.37
2022-09-29T12:20:47.210Z,14.46
2022-09-29T12:23:16.157Z,14.47
2022-09-29T12:26:11.365Z,14.46
2022-09-29T12:29:04.271Z,14.55
2022-09-29T12:31:49.728Z,14.67
2022-09-29T12:34:25.388Z,14.73
2022-09-29T12:37:20.401Z,14.77
2022-09-29T12:39:56.338Z,14.72
2022-09-29T12:42:44.168Z,14.75
2022-09-29T12:45:35.296Z,14.79
2022-09-29T12:48:23.400Z,14.65
2022-09-29T12:51:27.378Z,14.60
2022-09-29T12:54:15.850Z,14.71
2022-09-29T12:56:48.795Z,14.68
2022-09-29T12:59:28.245Z,14.67
2022-09-29T13:01:57.910Z,14.55
2022-09-29T13:04:43.003Z,14.47
2022-09-29T13:07:43.277Z,14.37
2022-09-29T13:10:40.010Z,14.20
2022-09-29T13:13:15.469Z,14.11
2022-09-29T13:16:12.998Z,14.37
2022-09-29T13:19:33.900Z,14.44
2022-09-29T13:22:22.186Z,14.53
2022-09-29T13:25:01.966Z,14.61
2022-09-29T13:27:37.794Z,14.67
2022-09-29T13:30:17.932Z,14.71
2022-09-29T13:33:09.844Z,14.77
2022-09-29T13:35:48.543Z,14.59
2022-09-29T13:38:20.809Z,14.44
2022-09-29T13:41:21.532Z,14.31
2022-09-29T13:43:50.706Z,14.18
2022-09-29T13:46:29.705Z,14.09
2022-09-29T13:49:13.999Z,14.06
2022-09-29T13:51:52.714Z,13.98
2022-09-29T13:54:25.502Z,13.89
2022-09-29T13:57:12.225Z,13.82
2022-09-29T13:59:41.539Z,14.03
2022-09-29T14:02:45.109Z,14.26
2022-09-29T14:05:23.696Z,14.40
2022-09-29T14:08:16.722Z,14.50
2022-09-29T14:10:47.289Z,14.55
2022-09-29T14:13:29.668Z,14.59
2022-09-29T14:16:14.636Z,14.66
2022-09-29T14:18:46.753Z,14.76
2022-09-29T14:21:34.767Z,14.77
2022-09-29T14:24:01.225Z,14.73
2022-09-29T14:26:51.293Z,14.68
2022-09-29T14:29:28.900Z,14.70
2022-09-29T14:31:59.783Z,14.65
2022-09-29T14:34:33.691Z,14.58
2022-09-29T14:37:01.089Z,14.54
2022-09-29T14:39:27.894Z,14.57
2022-09-29T14:41:54.475Z,14.64
2022-09-29T14:45:01.597Z,14.69
2022-09-29T14:47:52.524Z,14.75
2022-09-29T14:51:05.328Z,14.77
2022-09-29T14:53:41.947Z,14.82
2022-09-29T14:56:34.649Z,14.82
2022-09-29T14:59:25.348Z,14.80
2022-09-29T15:02:21.627Z,14.72
2022-09-29T15:04:48.674Z,14.65
2022-09-29T15:07:18.514Z,14.57
2022-09-29T15:09:48.594Z,14.52
2022-09-29T15:12:20.233Z,14.54
2022-09-29T15:14:46.806Z,14.53
2022-09-29T15:17:30.515Z,14.57
2022-09-29T15:20:00.019Z,14.62
2022-09-29T15:22:54.964Z,14.64
2022-09-29T15:25:44.094Z,14.64
2022-09-29T15:28:39.810Z,14.67
2022-09-29T15:31:11.157Z,14.64
2022-09-29T15:33:41.300Z,14.64
2022-09-29T15:36:18.862Z,14.61
2022-09-29T15:38:45.930Z,14.57
2022-09-29T15:41:13.114Z,14.56
2022-09-29T15:43:42.168Z,14.55
2022-09-29T15:46:21.463Z,14.53
2022-09-29T15:49:11.427Z,14.53
2022-09-29T15:51:38.978Z,14.53
2022-09-29T15:54:10.393Z,14.51
2022-09-29T15:56:56.503Z,14.47
2022-09-29T15:59:41.940Z,14.42
2022-09-29T16:02:18.576Z,14.39
2022-09-29T16:04:48.730Z,14.37
2022-09-29T16:07:23.969Z,14.34
2022-09-29T16:09:51.710Z,14.29
2022-09-29T16:12:21.057Z,14.24
2022-09-29T16:14:50.055Z,14.20
2022-09-29T16:17:17.028Z,14.13
2022-09-29T16:19:48.331Z,14.07
2022-09-29T16:22:23.827Z,14.02
2022-09-29T16:25:07.952Z,13.96
2022-09-29T16:27:57.528Z,13.87
2022-09-29T16:30:35.930Z,13.79
2022-09-29T16:33:25.293Z,13.73
2022-09-29T16:35:54.766Z,13.66
2022-09-29T16:38:41.342Z,13.55
2022-09-29T16:41:28.129Z,13.44
2022-09-29T16:44:13.163Z,13.32
2022-09-29T16:46:57.860Z,13.24
2022-09-29T16:49:35.443Z,13.15
2022-09-29T16:52:10.940Z,13.08
2022-09-29T16:54:43.777Z,13.02
2022-09-29T16:57:19.161Z,12.91
2022-09-29T16:59:46.339Z,12.83
2022-09-29T17:04:40.449Z,12.62
2022-09-29T17:07:13.313Z,12.53
2022-09-29T17:09:42.695Z,12.42
2022-09-29T17:12:13.028Z,12.31
2022-09-29T17:14:39.616Z,12.23
2022-09-29T17:17:06.540Z,12.16
2022-09-29T17:19:33.087Z,12.09
2022-09-29T17:21:59.974Z,11.99
2022-09-29T17:24:29.366Z,11.92
2022-09-29T17:27:14.537Z,11.84
2022-09-29T17:29:41.287Z,11.75
2022-09-29T17:32:14.300Z,11.71
2022-09-29T17:34:40.747Z,11.64
2022-09-29T17:37:10.876Z,11.55
2022-09-29T17:39:37.552Z,11.49
2022-09-29T17:42:04.027Z,11.41
2022-09-29T17:44:30.950Z,11.32
2022-09-29T17:47:11.266Z,11.27
2022-09-29T17:49:50.024Z,11.22
2022-09-29T17:52:16.894Z,11.18
2022-09-29T17:54:43.428Z,11.13
2022-09-29T17:57:20.435Z,11.06
2022-09-29T17:59:47.203Z,11.02
2022-09-29T18:02:13.997Z,10.97
2022-09-29T18:04:48.085Z,10.91
2022-09-29T18:07:15.613Z,10.84
2022-09-29T18:09:43.305Z,10.78
2022-09-29T18:12:09.879Z,10.73
2022-09-29T18:14:37.065Z,10.68
2022-09-29T18:17:05.775Z,10.65
2022-09-29T18:19:35.830Z,10.59
2022-09-29T18:22:06.060Z,10.56
2022-09-29T18:24:33.467Z,10.52
2022-09-29T18:27:00.016Z,10.49
2022-09-29T18:29:26.719Z,10.45
2022-09-29T18:31:53.182Z,10.40
2022-09-29T18:34:22.068Z,10.39
2022-09-29T18:36:48.927Z,10.35
2022-09-29T18:39:15.495Z,10.34
2022-09-29T18:41:41.948Z,10.26
2022-09-29T18:44:15.432Z,10.22
2022-09-29T18:46:43.701Z,10.17
2022-09-29T18:49:14.405Z,10.13
2022-09-29T18:51:41.313Z,10.07
2022-09-29T18:54:08.425Z,10.04
2022-09-29T18:56:35.003Z,9.99
2022-09-29T18:59:03.648Z,9.95
2022-09-29T19:01:30.254Z,9.91
2022-09-29T19:03:56.887Z,9.87
2022-09-29T19:06:23.439Z,9.84
2022-09-29T19:08:52.249Z,9.83
2022-09-29T19:11:25.503Z,9.80
2022-09-29T19:13:55.244Z,9.75
2022-09-29T19:16:23.259Z,9.72
2022-09-29T19:18:49.840Z,9.67
2022-09-29T19:21:16.554Z,9.60
2022-09-29T19:23:43.644Z,9.57
2022-09-29T19:26:14.980Z,9.54
2022-09-29T19:28:41.410Z,9.50
2022-09-29T19:31:11.795Z,9.47
2022-09-29T19:33:40.131Z,9.43
2022-09-29T19:36:08.818Z,9.40
2022-09-29T19:38:36.770Z,9.37
2022-09-29T19:41:04.442Z,9.34
2022-09-29T19:43:32.024Z,9.33
2022-09-29T19:45:58.459Z,9.30
2022-09-29T19:48:24.975Z,9.29
2022-09-29T19:51:17.252Z,9.27
2022-09-29T19:53:47.235Z,9.20
2022-09-29T19:56:16.995Z,9.16
2022-09-29T19:58:43.561Z,9.12
2022-09-29T20:01:11.606Z,9.11
2022-09-29T20:03:38.210Z,9.07
2022-09-29T20:06:09.779Z,9.08
2022-09-29T20:08:36.490Z,9.06
2022-09-29T20:11:08.580Z,9.05
2022-09-29T20:13:35.199Z,9.03
2022-09-29T20:16:02.273Z,9.00
2022-09-29T20:18:28.714Z,8.97
2022-09-29T20:20:55.717Z,8.92
2022-09-29T20:23:24.271Z,8.89
2022-09-29T20:25:59.160Z,8.85
2022-09-29T20:28:26.190Z,8.83
2022-09-29T20:31:00.129Z,8.80
2022-09-29T20:33:27.267Z,8.78
2022-09-29T20:35:53.696Z,8.77
2022-09-29T20:38:20.356Z,8.73
2022-09-29T20:40:48.056Z,8.69
2022-09-29T20:43:14.758Z,8.65
2022-09-29T20:45:41.784Z,8.62
2022-09-29T20:48:08.451Z,8.59
2022-09-29T20:50:35.220Z,8.56
2022-09-29T20:53:01.655Z,8.54
2022-09-29T20:55:28.112Z,8.50
2022-09-29T20:57:57.913Z,8.48
2022-09-29T21:00:27.310Z,8.46
2022-09-29T21:02:53.798Z,8.44
2022-09-29T21:05:20.263Z,8.41
2022-09-29T21:07:46.692Z,8.38
2022-09-29T21:10:13.166Z,8.33
2022-09-29T21:12:39.673Z,8.30
2022-09-29T21:15:06.414Z,8.25
2022-09-29T21:17:32.891Z,8.23
2022-09-29T21:19:59.393Z,8.20
2022-09-29T21:22:27.918Z,8.18
2022-09-29T21:24:54.906Z,8.15
2022-09-29T21:27:21.479Z,8.13
2022-09-29T21:29:48.036Z,8.10
2022-09-29T21:32:14.568Z,8.08
2022-09-29T21:34:41.091Z,8.07
2022-09-29T21:37:07.756Z,8.03
2022-09-29T21:39:34.361Z,8.01
2022-09-29T21:42:00.845Z,7.96
2022-09-29T21:44:27.338Z,7.93
2022-09-29T21:46:53.883Z,7.91
2022-09-29T21:49:20.741Z,7.87
2022-09-29T21:51:49.344Z,7.84
2022-09-29T21:54:21.601Z,7.83
2022-09-29T21:56:49.335Z,7.81
2022-09-29T21:59:18.219Z,7.78
2022-09-29T22:01:47.200Z,7.76
2022-09-29T22:04:14.690Z,7.74
2022-09-29T22:06:44.500Z,7.69
2022-09-29T22:09:18.008Z,7.66
2022-09-29T22:11:45.407Z,7.64
2022-09-29T22:14:13.422Z,7.61
2022-09-29T22:16:40.302Z,7.57
2022-09-29T22:19:23.701Z,7.56
2022-09-29T22:21:54.039Z,7.52
2022-09-29T22:24:21.109Z,7.51
2022-09-29T22:26:47.660Z,7.48
2022-09-29T22:29:14.106Z,7.45
2022-09-29T22:31:41.082Z,7.42
2022-09-29T22:34:08.277Z,7.38
2022-09-29T22:36:35.177Z,7.36
2022-09-29T22:39:03.410Z,7.37
2022-09-29T22:41:30.653Z,7.38
2022-09-29T22:43:59.293Z,7.41
2022-09-29T22:46:27.728Z,7.41
2022-09-29T22:48:54.643Z,7.42
2022-09-29T22:51:21.325Z,7.43
2022-09-29T22:53:48.253Z,7.45
2022-09-29T22:56:18.524Z,7.47
2022-09-29T22:58:45.490Z,7.48
2022-09-29T23:01:15.277Z,7.50
2022-09-29T23:03:43.522Z,7.50
2022-09-29T23:06:10.286Z,7.50
2022-09-29T23:08:37.486Z,7.49
2022-09-29T23:11:07.386Z,7.45
2022-09-29T23:13:36.934Z,7.41
2022-09-29T23:16:12.545Z,7.41
2022-09-29T23:18:45.714Z,7.41
2022-09-29T23:21:14.726Z,7.39
2022-09-29T23:23:41.517Z,7.38
2022-09-29T23:26:08.193Z,7.36
2022-09-29T23:28:34.692Z,7.30
2022-09-29T23:31:08.078Z,7.27
2022-09-29T23:33:35.044Z,7.24
2022-09-29T23:36:09.927Z,7.19
2022-09-29T23:38:59.916Z,7.16
2022-09-29T23:41:27.395Z,7.12
2022-09-29T23:43:57.785Z,7.08
2022-09-29T23:46:26.721Z,7.04
2022-09-29T23:48:53.467Z,7.01
2022-09-29T23:51:20.755Z,6.98
2022-09-29T23:53:47.281Z,6.97
2022-09-29T23:56:13.779Z,6.92
2022-09-29T23:58:40.295Z,6.87
